Current Conditions
Clear
Conditions



Pressure
29.78 (inHG) - 1008.47 (mb)
Visibility

10.0 (miles) - 16.1 (km)
Temperature
57  °F
Temperature
36  °F
Dewpoint
44  %
 Humidity
Wind Speed
7  mph
6  kts
11  km/h
3.1  m/s
Wind Direction
N
45°
E
90°
135°
S
180°
225°
W
270°
315°
 190°

Due South
Airport Data
KEQY
Charlotte-Monroe Executive Airport
Metar :KEQY 230153Z AUTO 19006KT 10SM CLR 14/02 A2978 RMK AO2 SLP094 T01390022
Thu 22nd February 21:53 pm
Raw Metar Info
Raw METAR is the most common format in the world for the transmission of observational weather data. It is highly standardized through the International Civil Aviation Organization (ICAO), which allows it to be understood throughout most of the world.
API Info
Data Provided by
https://www.checkwx.com/weather/KEQY

Aviation Weather providing METAR, TAF, AIRMET, SIGMET and OUTLOOK Weather Reports
© Info
CSS/SVG/PHP scripts were developed by weather34.com for use in the weather34 template © 2015-2024

Guide Info provided by Metar-Wikipedia